sensor_id;sensor_type;location;lat;lon;timestamp;temperature;humidity
40151;DHT22;25866;52.420;10.640;2023-11-21T00:01:57;8.30;99.90
40151;DHT22;25866;52.420;10.640;2023-11-21T00:04:23;8.30;99.90
40151;DHT22;25866;52.420;10.640;2023-11-21T00:06:49;8.30;99.90
40151;DHT22;25866;52.420;10.640;2023-11-21T00:09:15;8.20;99.90
40151;DHT22;25866;52.420;10.640;2023-11-21T00:11:41;8.20;99.90
40151;DHT22;25866;52.420;10.640;2023-11-21T00:14:07;8.20;99.90
40151;DHT22;25866;52.420;10.640;2023-11-21T00:16:33;8.20;99.90
40151;DHT22;25866;52.420;10.640;2023-11-21T00:18:59;8.20;99.90
40151;DHT22;25866;52.420;10.640;2023-11-21T00:21:25;8.20;99.90
40151;DHT22;25866;52.420;10.640;2023-11-21T00:23:51;8.20;99.90
40151;DHT22;25866;52.420;10.640;2023-11-21T00:26:17;8.20;99.90
40151;DHT22;25866;52.420;10.640;2023-11-21T00:28:42;8.20;99.90
40151;DHT22;25866;52.420;10.640;2023-11-21T00:31:08;8.20;99.90
40151;DHT22;25866;52.420;10.640;2023-11-21T00:33:34;8.20;99.90
40151;DHT22;25866;52.420;10.640;2023-11-21T00:35:59;8.20;99.90
40151;DHT22;25866;52.420;10.640;2023-11-21T00:38:26;8.10;99.90
40151;DHT22;25866;52.420;10.640;2023-11-21T00:40:53;8.10;99.90
40151;DHT22;25866;52.420;10.640;2023-11-21T00:43:22;8.20;99.90
40151;DHT22;25866;52.420;10.640;2023-11-21T00:45:48;8.10;99.90
40151;DHT22;25866;52.420;10.640;2023-11-21T00:48:14;8.20;99.90
40151;DHT22;25866;52.420;10.640;2023-11-21T00:50:40;8.20;99.90
40151;DHT22;25866;52.420;10.640;2023-11-21T00:53:06;8.10;99.90
40151;DHT22;25866;52.420;10.640;2023-11-21T00:55:33;8.10;99.90
40151;DHT22;25866;52.420;10.640;2023-11-21T00:57:59;8.10;99.90
40151;DHT22;25866;52.420;10.640;2023-11-21T01:00:25;8.10;99.90
40151;DHT22;25866;52.420;10.640;2023-11-21T01:02:51;8.10;99.90
40151;DHT22;25866;52.420;10.640;2023-11-21T01:05:17;8.10;99.90
40151;DHT22;25866;52.420;10.640;2023-11-21T01:07:43;8.10;99.90
40151;DHT22;25866;52.420;10.640;2023-11-21T01:10:09;8.10;99.90
40151;DHT22;25866;52.420;10.640;2023-11-21T01:12:36;8.10;99.90
40151;DHT22;25866;52.420;10.640;2023-11-21T01:15:04;8.10;99.90
40151;DHT22;25866;52.420;10.640;2023-11-21T01:17:32;8.10;99.90
40151;DHT22;25866;52.420;10.640;2023-11-21T01:20:00;8.10;99.90
40151;DHT22;25866;52.420;10.640;2023-11-21T01:22:26;8.10;99.90
40151;DHT22;25866;52.420;10.640;2023-11-21T01:24:53;8.00;99.90
40151;DHT22;25866;52.420;10.640;2023-11-21T01:27:19;8.10;99.90
40151;DHT22;25866;52.420;10.640;2023-11-21T01:29:46;8.10;99.90
40151;DHT22;25866;52.420;10.640;2023-11-21T01:32:11;8.00;99.90
40151;DHT22;25866;52.420;10.640;2023-11-21T01:34:38;8.00;99.90
40151;DHT22;25866;52.420;10.640;2023-11-21T01:37:03;8.00;99.90
40151;DHT22;25866;52.420;10.640;2023-11-21T01:39:31;8.00;99.90
40151;DHT22;25866;52.420;10.640;2023-11-21T01:41:57;8.00;99.90
40151;DHT22;25866;52.420;10.640;2023-11-21T01:44:26;8.00;99.90
40151;DHT22;25866;52.420;10.640;2023-11-21T01:46:52;8.00;99.90
40151;DHT22;25866;52.420;10.640;2023-11-21T01:49:20;8.00;99.90
40151;DHT22;25866;52.420;10.640;2023-11-21T01:51:48;8.00;99.90
40151;DHT22;25866;52.420;10.640;2023-11-21T01:54:15;8.00;99.90
40151;DHT22;25866;52.420;10.640;2023-11-21T01:56:44;8.00;99.90
40151;DHT22;25866;52.420;10.640;2023-11-21T01:59:12;8.00;99.90
40151;DHT22;25866;52.420;10.640;2023-11-21T02:01:39;8.00;99.90
40151;DHT22;25866;52.420;10.640;2023-11-21T02:04:06;8.00;99.90
40151;DHT22;25866;52.420;10.640;2023-11-21T02:06:33;8.10;99.90
40151;DHT22;25866;52.420;10.640;2023-11-21T02:08:59;8.00;99.90
40151;DHT22;25866;52.420;10.640;2023-11-21T02:11:25;8.00;99.90
40151;DHT22;25866;52.420;10.640;2023-11-21T02:13:53;8.00;99.90
40151;DHT22;25866;52.420;10.640;2023-11-21T02:16:19;8.00;99.90
40151;DHT22;25866;52.420;10.640;2023-11-21T02:18:47;8.10;99.90
40151;DHT22;25866;52.420;10.640;2023-11-21T02:21:14;8.10;99.90
40151;DHT22;25866;52.420;10.640;2023-11-21T02:23:40;8.10;99.90
40151;DHT22;25866;52.420;10.640;2023-11-21T02:28:45;8.00;99.90
40151;DHT22;25866;52.420;10.640;2023-11-21T02:31:10;8.00;99.90
40151;DHT22;25866;52.420;10.640;2023-11-21T02:33:37;8.10;99.90
40151;DHT22;25866;52.420;10.640;2023-11-21T02:36:04;8.00;99.90
40151;DHT22;25866;52.420;10.640;2023-11-21T02:38:29;8.10;99.90
40151;DHT22;25866;52.420;10.640;2023-11-21T02:40:57;8.10;99.90
40151;DHT22;25866;52.420;10.640;2023-11-21T02:43:23;8.10;99.90
40151;DHT22;25866;52.420;10.640;2023-11-21T02:45:49;8.10;99.90
40151;DHT22;25866;52.420;10.640;2023-11-21T02:48:15;8.10;99.90
40151;DHT22;25866;52.420;10.640;2023-11-21T02:50:40;8.00;99.90
40151;DHT22;25866;52.420;10.640;2023-11-21T02:53:06;8.10;99.90
40151;DHT22;25866;52.420;10.640;2023-11-21T02:55:32;8.10;99.90
40151;DHT22;25866;52.420;10.640;2023-11-21T02:58:01;8.10;99.90
40151;DHT22;25866;52.420;10.640;2023-11-21T03:00:27;8.00;99.90
40151;DHT22;25866;52.420;10.640;2023-11-21T03:02:54;8.10;99.90
40151;DHT22;25866;52.420;10.640;2023-11-21T03:05:21;8.00;99.90
40151;DHT22;25866;52.420;10.640;2023-11-21T03:07:46;8.10;99.90
40151;DHT22;25866;52.420;10.640;2023-11-21T03:10:12;8.10;99.90
40151;DHT22;25866;52.420;10.640;2023-11-21T03:12:39;8.10;99.90
40151;DHT22;25866;52.420;10.640;2023-11-21T03:15:08;8.00;99.90
40151;DHT22;25866;52.420;10.640;2023-11-21T03:17:36;8.10;99.90
40151;DHT22;25866;52.420;10.640;2023-11-21T03:20:03;8.10;99.90
40151;DHT22;25866;52.420;10.640;2023-11-21T03:22:29;8.10;99.90
40151;DHT22;25866;52.420;10.640;2023-11-21T03:24:55;8.10;99.90
40151;DHT22;25866;52.420;10.640;2023-11-21T03:27:20;8.10;99.90
40151;DHT22;25866;52.420;10.640;2023-11-21T03:29:47;8.10;99.90
40151;DHT22;25866;52.420;10.640;2023-11-21T03:32:13;8.10;99.90
40151;DHT22;25866;52.420;10.640;2023-11-21T03:34:53;8.10;99.90
40151;DHT22;25866;52.420;10.640;2023-11-21T03:37:20;8.10;99.90
40151;DHT22;25866;52.420;10.640;2023-11-21T03:39:46;8.10;99.90
40151;DHT22;25866;52.420;10.640;2023-11-21T03:42:12;8.10;99.90
40151;DHT22;25866;52.420;10.640;2023-11-21T03:44:38;8.10;99.90
40151;DHT22;25866;52.420;10.640;2023-11-21T03:47:03;8.10;99.90
40151;DHT22;25866;52.420;10.640;2023-11-21T03:49:29;8.00;99.90
40151;DHT22;25866;52.420;10.640;2023-11-21T03:51:56;8.10;99.90
40151;DHT22;25866;52.420;10.640;2023-11-21T03:54:22;8.00;99.90
40151;DHT22;25866;52.420;10.640;2023-11-21T03:56:47;8.10;99.90
40151;DHT22;25866;52.420;10.640;2023-11-21T03:59:13;8.00;99.90
40151;DHT22;25866;52.420;10.640;2023-11-21T04:01:39;8.10;99.90
40151;DHT22;25866;52.420;10.640;2023-11-21T04:04:04;8.10;99.90
40151;DHT22;25866;52.420;10.640;2023-11-21T04:06:30;8.10;99.90
40151;DHT22;25866;52.420;10.640;2023-11-21T04:08:58;8.10;99.90
40151;DHT22;25866;52.420;10.640;2023-11-21T19:23:33;4.60;99.90
40151;DHT22;25866;52.420;10.640;2023-11-21T19:26:03;4.60;99.90
40151;DHT22;25866;52.420;10.640;2023-11-21T19:28:29;4.60;99.90
40151;DHT22;25866;52.420;10.640;2023-11-21T19:30:55;4.60;99.90
40151;DHT22;25866;52.420;10.640;2023-11-21T19:33:23;4.60;99.90
40151;DHT22;25866;52.420;10.640;2023-11-21T19:35:52;4.50;99.90
40151;DHT22;25866;52.420;10.640;2023-11-21T19:38:18;4.50;99.90
40151;DHT22;25866;52.420;10.640;2023-11-21T19:40:48;4.50;99.90
40151;DHT22;25866;52.420;10.640;2023-11-21T19:43:16;4.50;99.90
40151;DHT22;25866;52.420;10.640;2023-11-21T19:45:45;4.50;99.90
40151;DHT22;25866;52.420;10.640;2023-11-21T19:48:11;4.50;99.90
40151;DHT22;25866;52.420;10.640;2023-11-21T19:50:36;4.50;99.90
40151;DHT22;25866;52.420;10.640;2023-11-21T19:53:18;4.40;99.90
40151;DHT22;25866;52.420;10.640;2023-11-21T19:55:43;4.40;99.90
40151;DHT22;25866;52.420;10.640;2023-11-21T19:58:09;4.40;99.90
40151;DHT22;25866;52.420;10.640;2023-11-21T20:00:36;4.40;99.90
40151;DHT22;25866;52.420;10.640;2023-11-21T20:03:02;4.40;99.90
40151;DHT22;25866;52.420;10.640;2023-11-21T20:05:49;4.40;99.90
40151;DHT22;25866;52.420;10.640;2023-11-21T20:08:16;4.40;99.90
40151;DHT22;25866;52.420;10.640;2023-11-21T20:10:41;4.40;99.90
40151;DHT22;25866;52.420;10.640;2023-11-21T20:13:08;4.40;99.90
40151;DHT22;25866;52.420;10.640;2023-11-21T20:15:42;4.40;99.90
40151;DHT22;25866;52.420;10.640;2023-11-21T20:18:08;4.40;99.90
40151;DHT22;25866;52.420;10.640;2023-11-21T20:23:09;4.30;99.90
40151;DHT22;25866;52.420;10.640;2023-11-21T20:25:34;4.40;99.90
40151;DHT22;25866;52.420;10.640;2023-11-21T20:28:00;4.40;99.90
40151;DHT22;25866;52.420;10.640;2023-11-21T20:30:26;4.30;99.90
40151;DHT22;25866;52.420;10.640;2023-11-21T20:33:29;4.20;99.90
40151;DHT22;25866;52.420;10.640;2023-11-21T20:35:54;4.20;99.90
40151;DHT22;25866;52.420;10.640;2023-11-21T20:38:20;4.20;99.90
40151;DHT22;25866;52.420;10.640;2023-11-21T20:40:48;4.30;99.90
40151;DHT22;25866;52.420;10.640;2023-11-21T20:43:16;4.30;99.90
40151;DHT22;25866;52.420;10.640;2023-11-21T20:45:41;4.30;99.90
40151;DHT22;25866;52.420;10.640;2023-11-21T20:48:07;4.20;99.90
40151;DHT22;25866;52.420;10.640;2023-11-21T20:50:33;4.20;99.90
40151;DHT22;25866;52.420;10.640;2023-11-21T20:53:04;4.20;99.90
40151;DHT22;25866;52.420;10.640;2023-11-21T20:55:33;4.20;99.90
40151;DHT22;25866;52.420;10.640;2023-11-21T20:57:59;4.20;99.90
40151;DHT22;25866;52.420;10.640;2023-11-21T21:00:25;4.20;99.90
40151;DHT22;25866;52.420;10.640;2023-11-21T21:02:52;4.20;99.90
40151;DHT22;25866;52.420;10.640;2023-11-21T21:05:18;4.10;99.90
40151;DHT22;25866;52.420;10.640;2023-11-21T21:07:46;4.10;99.90
40151;DHT22;25866;52.420;10.640;2023-11-21T21:10:11;4.10;99.90
40151;DHT22;25866;52.420;10.640;2023-11-21T21:12:37;4.10;99.90
40151;DHT22;25866;52.420;10.640;2023-11-21T21:15:04;4.10;99.90
40151;DHT22;25866;52.420;10.640;2023-11-21T21:17:31;4.10;99.90
40151;DHT22;25866;52.420;10.640;2023-11-21T21:19:58;4.10;99.90
40151;DHT22;25866;52.420;10.640;2023-11-21T21:22:25;4.10;99.90
40151;DHT22;25866;52.420;10.640;2023-11-21T21:24:57;4.10;99.90
40151;DHT22;25866;52.420;10.640;2023-11-21T21:27:23;4.00;99.90
40151;DHT22;25866;52.420;10.640;2023-11-21T21:29:49;4.00;99.90
40151;DHT22;25866;52.420;10.640;2023-11-21T21:32:15;4.00;99.90
40151;DHT22;25866;52.420;10.640;2023-11-21T21:34:51;4.00;99.90
40151;DHT22;25866;52.420;10.640;2023-11-21T21:37:17;4.00;99.90
40151;DHT22;25866;52.420;10.640;2023-11-21T21:39:43;3.90;99.90
40151;DHT22;25866;52.420;10.640;2023-11-21T21:42:10;3.90;99.90
40151;DHT22;25866;52.420;10.640;2023-11-21T21:44:43;3.90;99.90
40151;DHT22;25866;52.420;10.640;2023-11-21T21:47:09;3.80;99.90
40151;DHT22;25866;52.420;10.640;2023-11-21T21:49:35;3.80;99.90
40151;DHT22;25866;52.420;10.640;2023-11-21T21:52:02;3.80;99.90
40151;DHT22;25866;52.420;10.640;2023-11-21T21:54:29;3.80;99.90
40151;DHT22;25866;52.420;10.640;2023-11-21T21:56:55;3.80;99.90
40151;DHT22;25866;52.420;10.640;2023-11-21T21:59:21;3.80;99.90
40151;DHT22;25866;52.420;10.640;2023-11-21T22:01:48;3.80;99.90
40151;DHT22;25866;52.420;10.640;2023-11-21T22:04:14;3.80;99.90
40151;DHT22;25866;52.420;10.640;2023-11-21T22:06:40;3.80;99.90
40151;DHT22;25866;52.420;10.640;2023-11-21T22:09:06;3.80;99.90
40151;DHT22;25866;52.420;10.640;2023-11-21T22:11:32;3.70;99.90
40151;DHT22;25866;52.420;10.640;2023-11-21T22:14:02;3.70;99.90
40151;DHT22;25866;52.420;10.640;2023-11-21T22:16:30;3.80;99.90
40151;DHT22;25866;52.420;10.640;2023-11-21T22:18:57;3.80;99.90
40151;DHT22;25866;52.420;10.640;2023-11-21T22:21:23;3.80;99.90
40151;DHT22;25866;52.420;10.640;2023-11-21T22:23:53;3.70;99.90
40151;DHT22;25866;52.420;10.640;2023-11-21T22:26:18;3.80;99.90
40151;DHT22;25866;52.420;10.640;2023-11-21T22:28:51;3.70;99.90
40151;DHT22;25866;52.420;10.640;2023-11-21T22:31:18;3.70;99.90
40151;DHT22;25866;52.420;10.640;2023-11-21T22:33:46;3.70;99.90
40151;DHT22;25866;52.420;10.640;2023-11-21T22:36:14;3.70;99.90
40151;DHT22;25866;52.420;10.640;2023-11-21T22:38:40;3.70;99.90
40151;DHT22;25866;52.420;10.640;2023-11-21T22:41:07;3.70;99.90
40151;DHT22;25866;52.420;10.640;2023-11-21T22:43:38;3.60;99.90
40151;DHT22;25866;52.420;10.640;2023-11-21T22:46:04;3.60;99.90
40151;DHT22;25866;52.420;10.640;2023-11-21T22:48:32;3.50;99.90
40151;DHT22;25866;52.420;10.640;2023-11-21T22:50:57;3.50;99.90
40151;DHT22;25866;52.420;10.640;2023-11-21T22:53:23;3.50;99.90
40151;DHT22;25866;52.420;10.640;2023-11-21T22:56:02;3.40;99.90
40151;DHT22;25866;52.420;10.640;2023-11-21T22:58:30;3.40;99.90
40151;DHT22;25866;52.420;10.640;2023-11-21T23:00:56;3.40;99.90
40151;DHT22;25866;52.420;10.640;2023-11-21T23:03:23;3.40;99.90
40151;DHT22;25866;52.420;10.640;2023-11-21T23:05:49;3.40;99.90
40151;DHT22;25866;52.420;10.640;2023-11-21T23:08:18;3.30;99.90
40151;DHT22;25866;52.420;10.640;2023-11-21T23:10:44;3.20;99.90
40151;DHT22;25866;52.420;10.640;2023-11-21T23:13:09;3.30;99.90
40151;DHT22;25866;52.420;10.640;2023-11-21T23:15:40;3.30;99.90
40151;DHT22;25866;52.420;10.640;2023-11-21T23:18:12;3.30;99.90
40151;DHT22;25866;52.420;10.640;2023-11-21T23:20:37;3.30;99.90
40151;DHT22;25866;52.420;10.640;2023-11-21T23:23:04;3.30;99.90
40151;DHT22;25866;52.420;10.640;2023-11-21T23:25:36;3.30;99.90
40151;DHT22;25866;52.420;10.640;2023-11-21T23:28:02;3.30;99.90
40151;DHT22;25866;52.420;10.640;2023-11-21T23:30:27;3.30;99.90
40151;DHT22;25866;52.420;10.640;2023-11-21T23:32:54;3.30;99.90
40151;DHT22;25866;52.420;10.640;2023-11-21T23:35:52;3.30;99.90
40151;DHT22;25866;52.420;10.640;2023-11-21T23:38:18;3.30;99.90
40151;DHT22;25866;52.420;10.640;2023-11-21T23:40:44;3.30;99.90
40151;DHT22;25866;52.420;10.640;2023-11-21T23:43:10;3.30;99.90
40151;DHT22;25866;52.420;10.640;2023-11-21T23:45:42;3.30;99.90
40151;DHT22;25866;52.420;10.640;2023-11-21T23:48:08;3.30;99.90
40151;DHT22;25866;52.420;10.640;2023-11-21T23:50:34;3.30;99.90
40151;DHT22;25866;52.420;10.640;2023-11-21T23:53:00;3.30;99.90
40151;DHT22;25866;52.420;10.640;2023-11-21T23:55:30;3.30;99.90
40151;DHT22;25866;52.420;10.640;2023-11-21T23:57:56;3.30;99.90
